Fresh Pond, New York
Current Conditions -  °F | °C
As of 8:51 AM on Thursday 29 Jan 2015 (Local Time) from KLGA Reporting Station
Broken Clouds Broken Clouds  
Wind Chill: 18°   Ceiling: 25000
Heat Index: 24°   Visibility: 10mi
Dew Point:   Wind: 5mph
Humidity: 40%   Direction: 30°NNE
Pressure: 30.33"   Gusts: NA
Location:  40.7008°N, 73.8892°W
Report Text: KLGA 291351Z 03004KT 10SM BKN250 M04/M16 A3033 RMK AO2 SLP271 T10441161
Loading
Personal Weather Stations






























Interactive Weather Map New forecast layout! Learn more

10-Day Weather Forecast

Advertisements
Track Severe Weather on mobile